sensor_id;sensor_type;location;lat;lon;timestamp;temperature;humidity
14699;DHT22;7439;50.804;4.602;2022-07-19T00:00:02;16.50;1.00
14699;DHT22;7439;50.804;4.602;2022-07-19T00:02:30;16.40;1.00
14699;DHT22;7439;50.804;4.602;2022-07-19T00:04:57;16.30;1.00
14699;DHT22;7439;50.804;4.602;2022-07-19T00:07:24;16.40;1.00
14699;DHT22;7439;50.804;4.602;2022-07-19T00:09:51;16.30;1.00
14699;DHT22;7439;50.804;4.602;2022-07-19T00:12:18;16.30;1.00
14699;DHT22;7439;50.804;4.602;2022-07-19T00:14:47;16.30;1.00
14699;DHT22;7439;50.804;4.602;2022-07-19T00:17:14;16.30;1.00
14699;DHT22;7439;50.804;4.602;2022-07-19T00:19:41;16.30;1.00
14699;DHT22;7439;50.804;4.602;2022-07-19T00:22:08;16.20;1.00
14699;DHT22;7439;50.804;4.602;2022-07-19T00:24:35;16.20;1.00
14699;DHT22;7439;50.804;4.602;2022-07-19T00:27:02;16.20;7.10
14699;DHT22;7439;50.804;4.602;2022-07-19T00:29:29;16.10;17.90
14699;DHT22;7439;50.804;4.602;2022-07-19T00:31:58;16.10;29.20
14699;DHT22;7439;50.804;4.602;2022-07-19T00:34:25;16.10;97.40
14699;DHT22;7439;50.804;4.602;2022-07-19T00:36:51;16.10;99.90
14699;DHT22;7439;50.804;4.602;2022-07-19T00:39:19;16.00;99.90
14699;DHT22;7439;50.804;4.602;2022-07-19T00:41:46;16.00;99.90
14699;DHT22;7439;50.804;4.602;2022-07-19T00:44:13;16.00;99.90
14699;DHT22;7439;50.804;4.602;2022-07-19T00:46:40;15.90;99.90
14699;DHT22;7439;50.804;4.602;2022-07-19T00:49:08;15.90;99.90
14699;DHT22;7439;50.804;4.602;2022-07-19T00:51:38;15.90;99.90
14699;DHT22;7439;50.804;4.602;2022-07-19T00:54:08;15.80;99.90
14699;DHT22;7439;50.804;4.602;2022-07-19T00:56:37;15.80;99.90
14699;DHT22;7439;50.804;4.602;2022-07-19T00:59:05;15.70;99.90
14699;DHT22;7439;50.804;4.602;2022-07-19T01:01:32;15.80;99.90
14699;DHT22;7439;50.804;4.602;2022-07-19T01:03:59;15.80;99.90
14699;DHT22;7439;50.804;4.602;2022-07-19T01:06:28;15.70;99.90
14699;DHT22;7439;50.804;4.602;2022-07-19T01:08:55;15.70;99.90
14699;DHT22;7439;50.804;4.602;2022-07-19T01:11:22;15.70;99.90
14699;DHT22;7439;50.804;4.602;2022-07-19T01:13:49;15.60;99.90
14699;DHT22;7439;50.804;4.602;2022-07-19T01:16:16;15.50;99.90
14699;DHT22;7439;50.804;4.602;2022-07-19T01:18:43;15.50;99.90
14699;DHT22;7439;50.804;4.602;2022-07-19T01:21:19;15.50;99.90
14699;DHT22;7439;50.804;4.602;2022-07-19T01:23:46;15.50;99.90
14699;DHT22;7439;50.804;4.602;2022-07-19T01:26:13;15.50;99.90
14699;DHT22;7439;50.804;4.602;2022-07-19T01:28:40;15.40;99.90
14699;DHT22;7439;50.804;4.602;2022-07-19T01:31:08;15.40;99.90
14699;DHT22;7439;50.804;4.602;2022-07-19T01:33:38;15.40;1.00
14699;DHT22;7439;50.804;4.602;2022-07-19T01:36:06;15.30;1.00
14699;DHT22;7439;50.804;4.602;2022-07-19T01:38:35;15.30;1.00
14699;DHT22;7439;50.804;4.602;2022-07-19T01:41:03;15.40;1.00
14699;DHT22;7439;50.804;4.602;2022-07-19T01:43:30;15.40;1.00
14699;DHT22;7439;50.804;4.602;2022-07-19T01:45:57;15.30;1.00
14699;DHT22;7439;50.804;4.602;2022-07-19T01:48:24;15.30;1.00
14699;DHT22;7439;50.804;4.602;2022-07-19T01:50:51;15.30;1.00
14699;DHT22;7439;50.804;4.602;2022-07-19T01:53:19;15.20;1.00
14699;DHT22;7439;50.804;4.602;2022-07-19T01:55:47;15.20;1.00
14699;DHT22;7439;50.804;4.602;2022-07-19T01:58:14;15.20;1.00
14699;DHT22;7439;50.804;4.602;2022-07-19T02:00:41;15.20;1.00
14699;DHT22;7439;50.804;4.602;2022-07-19T02:03:08;15.10;1.00
14699;DHT22;7439;50.804;4.602;2022-07-19T02:05:35;15.10;1.00
14699;DHT22;7439;50.804;4.602;2022-07-19T02:08:03;15.10;1.00
14699;DHT22;7439;50.804;4.602;2022-07-19T02:10:31;15.00;1.00
14699;DHT22;7439;50.804;4.602;2022-07-19T02:13:00;15.00;1.00
14699;DHT22;7439;50.804;4.602;2022-07-19T02:15:27;15.10;1.00
14699;DHT22;7439;50.804;4.602;2022-07-19T02:17:54;15.10;1.00
14699;DHT22;7439;50.804;4.602;2022-07-19T02:20:21;15.00;1.00
14699;DHT22;7439;50.804;4.602;2022-07-19T02:22:48;14.90;1.00
14699;DHT22;7439;50.804;4.602;2022-07-19T02:25:16;15.00;1.00
14699;DHT22;7439;50.804;4.602;2022-07-19T02:27:43;14.90;1.00
14699;DHT22;7439;50.804;4.602;2022-07-19T02:30:12;14.90;3.00
14699;DHT22;7439;50.804;4.602;2022-07-19T02:32:40;15.00;23.60
14699;DHT22;7439;50.804;4.602;2022-07-19T02:35:09;14.90;16.00
14699;DHT22;7439;50.804;4.602;2022-07-19T02:37:38;14.90;2.60
14699;DHT22;7439;50.804;4.602;2022-07-19T02:40:06;14.80;8.30
14699;DHT22;7439;50.804;4.602;2022-07-19T02:42:33;14.80;28.80
14699;DHT22;7439;50.804;4.602;2022-07-19T02:45:01;14.80;60.30
14699;DHT22;7439;50.804;4.602;2022-07-19T02:47:29;14.80;99.90
14699;DHT22;7439;50.804;4.602;2022-07-19T02:49:56;14.80;99.90
14699;DHT22;7439;50.804;4.602;2022-07-19T02:52:23;14.80;99.90
14699;DHT22;7439;50.804;4.602;2022-07-19T02:54:50;14.80;99.90
14699;DHT22;7439;50.804;4.602;2022-07-19T02:57:17;14.80;99.90
14699;DHT22;7439;50.804;4.602;2022-07-19T02:59:44;14.80;99.90
14699;DHT22;7439;50.804;4.602;2022-07-19T03:02:11;14.70;99.90
14699;DHT22;7439;50.804;4.602;2022-07-19T03:04:40;14.70;99.90
14699;DHT22;7439;50.804;4.602;2022-07-19T03:07:07;14.70;99.90
14699;DHT22;7439;50.804;4.602;2022-07-19T03:09:34;14.60;99.90
14699;DHT22;7439;50.804;4.602;2022-07-19T03:12:01;14.60;99.90
14699;DHT22;7439;50.804;4.602;2022-07-19T03:14:28;14.60;99.90
14699;DHT22;7439;50.804;4.602;2022-07-19T03:16:56;14.70;99.90
14699;DHT22;7439;50.804;4.602;2022-07-19T03:19:23;14.60;99.90
14699;DHT22;7439;50.804;4.602;2022-07-19T03:21:53;14.50;99.90
14699;DHT22;7439;50.804;4.602;2022-07-19T03:24:20;14.50;99.90
14699;DHT22;7439;50.804;4.602;2022-07-19T03:26:47;14.60;99.90
14699;DHT22;7439;50.804;4.602;2022-07-19T03:29:14;14.50;99.90
14699;DHT22;7439;50.804;4.602;2022-07-19T03:31:41;14.50;99.90
14699;DHT22;7439;50.804;4.602;2022-07-19T03:34:08;14.50;99.90
14699;DHT22;7439;50.804;4.602;2022-07-19T03:36:35;14.50;99.90
14699;DHT22;7439;50.804;4.602;2022-07-19T03:39:04;14.50;99.90
14699;DHT22;7439;50.804;4.602;2022-07-19T03:41:31;14.50;99.90
14699;DHT22;7439;50.804;4.602;2022-07-19T03:43:58;14.40;99.90
14699;DHT22;7439;50.804;4.602;2022-07-19T03:46:25;14.40;99.90
14699;DHT22;7439;50.804;4.602;2022-07-19T03:48:54;14.40;99.90
14699;DHT22;7439;50.804;4.602;2022-07-19T03:51:21;14.40;99.90
14699;DHT22;7439;50.804;4.602;2022-07-19T03:53:48;14.40;99.90
14699;DHT22;7439;50.804;4.602;2022-07-19T03:56:16;14.40;99.90
14699;DHT22;7439;50.804;4.602;2022-07-19T03:58:46;14.40;99.90
14699;DHT22;7439;50.804;4.602;2022-07-19T04:01:13;14.40;99.90
14699;DHT22;7439;50.804;4.602;2022-07-19T04:03:41;14.40;99.90
14699;DHT22;7439;50.804;4.602;2022-07-19T04:06:10;14.40;99.90
14699;DHT22;7439;50.804;4.602;2022-07-19T04:08:37;14.40;99.90
14699;DHT22;7439;50.804;4.602;2022-07-19T04:11:04;14.40;99.90
14699;DHT22;7439;50.804;4.602;2022-07-19T04:13:34;14.40;99.90
14699;DHT22;7439;50.804;4.602;2022-07-19T04:16:01;14.50;1.00
14699;DHT22;7439;50.804;4.602;2022-07-19T04:18:28;14.50;1.00
14699;DHT22;7439;50.804;4.602;2022-07-19T04:20:55;14.60;1.00
14699;DHT22;7439;50.804;4.602;2022-07-19T04:23:22;14.60;1.00
14699;DHT22;7439;50.804;4.602;2022-07-19T04:25:49;14.60;1.00
14699;DHT22;7439;50.804;4.602;2022-07-19T04:28:16;14.60;1.00
14699;DHT22;7439;50.804;4.602;2022-07-19T04:30:45;14.60;1.00
14699;DHT22;7439;50.804;4.602;2022-07-19T04:33:13;14.60;1.00
14699;DHT22;7439;50.804;4.602;2022-07-19T04:35:41;14.60;1.00
14699;DHT22;7439;50.804;4.602;2022-07-19T04:38:08;14.60;1.00
14699;DHT22;7439;50.804;4.602;2022-07-19T04:40:35;14.60;1.00
14699;DHT22;7439;50.804;4.602;2022-07-19T04:43:02;14.70;1.00
14699;DHT22;7439;50.804;4.602;2022-07-19T04:45:29;14.70;1.00
14699;DHT22;7439;50.804;4.602;2022-07-19T04:47:58;14.80;1.00
14699;DHT22;7439;50.804;4.602;2022-07-19T04:50:24;14.80;1.00
14699;DHT22;7439;50.804;4.602;2022-07-19T04:52:51;14.90;1.00
14699;DHT22;7439;50.804;4.602;2022-07-19T04:55:18;14.90;1.00
14699;DHT22;7439;50.804;4.602;2022-07-19T04:57:45;15.00;1.00
14699;DHT22;7439;50.804;4.602;2022-07-19T05:00:13;15.00;1.00
14699;DHT22;7439;50.804;4.602;2022-07-19T05:02:40;15.10;1.00
14699;DHT22;7439;50.804;4.602;2022-07-19T05:05:09;15.10;1.00
14699;DHT22;7439;50.804;4.602;2022-07-19T05:07:36;15.30;1.00
14699;DHT22;7439;50.804;4.602;2022-07-19T05:10:04;15.40;1.00
14699;DHT22;7439;50.804;4.602;2022-07-19T05:12:32;15.40;1.00
14699;DHT22;7439;50.804;4.602;2022-07-19T05:14:59;15.50;99.90
14699;DHT22;7439;50.804;4.602;2022-07-19T05:17:26;15.60;99.90
14699;DHT22;7439;50.804;4.602;2022-07-19T05:19:53;15.70;99.90
14699;DHT22;7439;50.804;4.602;2022-07-19T05:22:21;15.80;99.90
14699;DHT22;7439;50.804;4.602;2022-07-19T05:24:51;15.90;99.90
14699;DHT22;7439;50.804;4.602;2022-07-19T05:27:18;16.00;99.90
14699;DHT22;7439;50.804;4.602;2022-07-19T05:29:45;16.20;99.90
14699;DHT22;7439;50.804;4.602;2022-07-19T05:32:12;16.30;99.90
14699;DHT22;7439;50.804;4.602;2022-07-19T05:34:39;16.40;91.60
14699;DHT22;7439;50.804;4.602;2022-07-19T05:37:06;16.50;15.30
14699;DHT22;7439;50.804;4.602;2022-07-19T05:39:35;16.70;1.00
14699;DHT22;7439;50.804;4.602;2022-07-19T05:42:02;16.80;1.00
14699;DHT22;7439;50.804;4.602;2022-07-19T05:44:29;16.90;1.00
14699;DHT22;7439;50.804;4.602;2022-07-19T05:46:56;17.10;1.00
14699;DHT22;7439;50.804;4.602;2022-07-19T05:49:23;17.20;99.90
14699;DHT22;7439;50.804;4.602;2022-07-19T05:51:50;17.30;99.90
14699;DHT22;7439;50.804;4.602;2022-07-19T05:54:19;17.40;99.90
14699;DHT22;7439;50.804;4.602;2022-07-19T05:56:48;17.60;99.90
14699;DHT22;7439;50.804;4.602;2022-07-19T05:59:15;17.80;99.90
14699;DHT22;7439;50.804;4.602;2022-07-19T06:01:42;17.90;99.90
14699;DHT22;7439;50.804;4.602;2022-07-19T06:04:09;18.00;1.00
14699;DHT22;7439;50.804;4.602;2022-07-19T06:06:36;18.10;1.00
14699;DHT22;7439;50.804;4.602;2022-07-19T06:09:03;18.30;1.00
14699;DHT22;7439;50.804;4.602;2022-07-19T06:11:33;18.50;1.00
14699;DHT22;7439;50.804;4.602;2022-07-19T06:14:02;18.60;1.00
14699;DHT22;7439;50.804;4.602;2022-07-19T06:16:30;18.80;99.90
14699;DHT22;7439;50.804;4.602;2022-07-19T06:18:57;19.00;99.90
14699;DHT22;7439;50.804;4.602;2022-07-19T06:21:24;19.20;99.90
14699;DHT22;7439;50.804;4.602;2022-07-19T06:23:51;19.30;99.90
14699;DHT22;7439;50.804;4.602;2022-07-19T06:26:19;19.40;99.90
14699;DHT22;7439;50.804;4.602;2022-07-19T06:28:46;19.60;99.90
14699;DHT22;7439;50.804;4.602;2022-07-19T06:31:14;19.70;99.90
14699;DHT22;7439;50.804;4.602;2022-07-19T06:33:44;19.90;99.90
14699;DHT22;7439;50.804;4.602;2022-07-19T06:36:11;20.10;99.90
14699;DHT22;7439;50.804;4.602;2022-07-19T06:38:39;20.20;99.90
14699;DHT22;7439;50.804;4.602;2022-07-19T06:41:07;20.30;1.00
14699;DHT22;7439;50.804;4.602;2022-07-19T06:43:34;20.50;3.90
14699;DHT22;7439;50.804;4.602;2022-07-19T06:46:01;20.70;1.00
14699;DHT22;7439;50.804;4.602;2022-07-19T06:48:30;20.80;1.00
14699;DHT22;7439;50.804;4.602;2022-07-19T06:50:58;21.00;1.00
14699;DHT22;7439;50.804;4.602;2022-07-19T06:53:25;21.20;1.00
14699;DHT22;7439;50.804;4.602;2022-07-19T06:55:52;21.40;1.00
14699;DHT22;7439;50.804;4.602;2022-07-19T06:58:20;21.60;1.00
14699;DHT22;7439;50.804;4.602;2022-07-19T07:00:47;21.70;1.00
14699;DHT22;7439;50.804;4.602;2022-07-19T07:03:14;21.90;1.00
14699;DHT22;7439;50.804;4.602;2022-07-19T07:05:44;22.10;99.90
14699;DHT22;7439;50.804;4.602;2022-07-19T07:08:11;22.30;1.00
14699;DHT22;7439;50.804;4.602;2022-07-19T07:10:38;22.50;1.00
14699;DHT22;7439;50.804;4.602;2022-07-19T07:13:06;22.70;1.00
14699;DHT22;7439;50.804;4.602;2022-07-19T07:15:33;22.90;1.00
14699;DHT22;7439;50.804;4.602;2022-07-19T07:18:00;23.00;1.00
14699;DHT22;7439;50.804;4.602;2022-07-19T07:20:29;23.30;99.90
14699;DHT22;7439;50.804;4.602;2022-07-19T07:23:01;23.50;99.90
14699;DHT22;7439;50.804;4.602;2022-07-19T07:25:28;23.70;99.90
14699;DHT22;7439;50.804;4.602;2022-07-19T07:27:55;24.00;99.90
14699;DHT22;7439;50.804;4.602;2022-07-19T07:30:23;24.10;99.90
14699;DHT22;7439;50.804;4.602;2022-07-19T07:32:50;24.30;99.90
14699;DHT22;7439;50.804;4.602;2022-07-19T07:35:17;24.60;99.90
14699;DHT22;7439;50.804;4.602;2022-07-19T07:37:44;24.90;99.90
14699;DHT22;7439;50.804;4.602;2022-07-19T07:40:13;25.00;99.90
14699;DHT22;7439;50.804;4.602;2022-07-19T07:42:40;25.20;99.90
14699;DHT22;7439;50.804;4.602;2022-07-19T07:45:07;25.50;99.90
14699;DHT22;7439;50.804;4.602;2022-07-19T07:47:35;25.80;1.00
14699;DHT22;7439;50.804;4.602;2022-07-19T07:50:04;26.10;1.00
14699;DHT22;7439;50.804;4.602;2022-07-19T07:52:31;26.30;1.00
14699;DHT22;7439;50.804;4.602;2022-07-19T07:54:58;26.60;1.00
14699;DHT22;7439;50.804;4.602;2022-07-19T07:57:28;26.80;1.00
14699;DHT22;7439;50.804;4.602;2022-07-19T07:59:55;27.00;1.00
14699;DHT22;7439;50.804;4.602;2022-07-19T08:02:22;27.20;1.00
14699;DHT22;7439;50.804;4.602;2022-07-19T08:04:49;27.40;1.00
14699;DHT22;7439;50.804;4.602;2022-07-19T08:07:16;27.70;1.00
14699;DHT22;7439;50.804;4.602;2022-07-19T08:09:43;27.90;1.00
14699;DHT22;7439;50.804;4.602;2022-07-19T08:12:10;28.10;1.00
14699;DHT22;7439;50.804;4.602;2022-07-19T08:14:38;28.40;1.00
14699;DHT22;7439;50.804;4.602;2022-07-19T08:17:06;28.80;1.00
14699;DHT22;7439;50.804;4.602;2022-07-19T08:19:33;29.00;1.00
14699;DHT22;7439;50.804;4.602;2022-07-19T08:22:00;29.10;1.00
14699;DHT22;7439;50.804;4.602;2022-07-19T08:24:27;29.20;1.00
14699;DHT22;7439;50.804;4.602;2022-07-19T08:26:54;29.40;1.00
14699;DHT22;7439;50.804;4.602;2022-07-19T08:29:22;29.70;1.00
14699;DHT22;7439;50.804;4.602;2022-07-19T08:31:50;30.00;1.00
14699;DHT22;7439;50.804;4.602;2022-07-19T08:34:17;30.30;1.00
14699;DHT22;7439;50.804;4.602;2022-07-19T08:36:44;30.30;1.00
14699;DHT22;7439;50.804;4.602;2022-07-19T08:39:11;30.50;1.00
14699;DHT22;7439;50.804;4.602;2022-07-19T08:41:38;30.70;1.00
14699;DHT22;7439;50.804;4.602;2022-07-19T08:44:10;30.90;1.00
14699;DHT22;7439;50.804;4.602;2022-07-19T08:46:39;31.30;1.00
14699;DHT22;7439;50.804;4.602;2022-07-19T08:49:08;31.30;1.00
14699;DHT22;7439;50.804;4.602;2022-07-19T08:51:36;31.50;1.00
14699;DHT22;7439;50.804;4.602;2022-07-19T08:54:03;31.70;1.00
14699;DHT22;7439;50.804;4.602;2022-07-19T08:56:30;31.60;1.00
14699;DHT22;7439;50.804;4.602;2022-07-19T08:59:15;31.90;1.00
14699;DHT22;7439;50.804;4.602;2022-07-19T09:01:42;32.10;1.00
14699;DHT22;7439;50.804;4.602;2022-07-19T09:04:13;32.30;1.00
14699;DHT22;7439;50.804;4.602;2022-07-19T09:06:43;32.60;1.00
14699;DHT22;7439;50.804;4.602;2022-07-19T09:09:11;33.00;1.00
14699;DHT22;7439;50.804;4.602;2022-07-19T09:11:41;33.50;1.00
14699;DHT22;7439;50.804;4.602;2022-07-19T09:14:15;33.90;1.00
14699;DHT22;7439;50.804;4.602;2022-07-19T09:16:54;34.20;1.00
14699;DHT22;7439;50.804;4.602;2022-07-19T09:19:24;34.70;1.00
14699;DHT22;7439;50.804;4.602;2022-07-19T09:21:53;34.70;1.00
14699;DHT22;7439;50.804;4.602;2022-07-19T09:24:21;35.00;1.00
14699;DHT22;7439;50.804;4.602;2022-07-19T09:26:59;35.20;1.00
14699;DHT22;7439;50.804;4.602;2022-07-19T09:29:28;36.20;1.00
14699;DHT22;7439;50.804;4.602;2022-07-19T09:32:04;36.50;1.00
14699;DHT22;7439;50.804;4.602;2022-07-19T09:34:34;37.00;1.00
14699;DHT22;7439;50.804;4.602;2022-07-19T09:37:12;37.00;1.00
14699;DHT22;7439;50.804;4.602;2022-07-19T09:39:40;36.40;1.00
14699;DHT22;7439;50.804;4.602;2022-07-19T09:42:11;36.20;1.00
14699;DHT22;7439;50.804;4.602;2022-07-19T09:44:38;35.90;1.00
14699;DHT22;7439;50.804;4.602;2022-07-19T09:47:05;36.50;1.00
14699;DHT22;7439;50.804;4.602;2022-07-19T09:49:34;36.50;1.00
14699;DHT22;7439;50.804;4.602;2022-07-19T09:52:03;36.10;1.00
14699;DHT22;7439;50.804;4.602;2022-07-19T09:54:30;36.60;1.00
14699;DHT22;7439;50.804;4.602;2022-07-19T09:56:59;37.20;1.00
14699;DHT22;7439;50.804;4.602;2022-07-19T09:59:27;37.50;1.00
14699;DHT22;7439;50.804;4.602;2022-07-19T10:01:55;36.90;1.00
14699;DHT22;7439;50.804;4.602;2022-07-19T10:04:25;37.00;1.00
14699;DHT22;7439;50.804;4.602;2022-07-19T10:06:54;37.60;1.00
14699;DHT22;7439;50.804;4.602;2022-07-19T10:09:23;37.50;1.00
14699;DHT22;7439;50.804;4.602;2022-07-19T10:11:52;37.20;1.00
14699;DHT22;7439;50.804;4.602;2022-07-19T10:14:20;37.40;1.00
14699;DHT22;7439;50.804;4.602;2022-07-19T10:17:07;37.70;1.00
14699;DHT22;7439;50.804;4.602;2022-07-19T10:19:39;38.00;1.00
14699;DHT22;7439;50.804;4.602;2022-07-19T10:22:09;38.40;1.00
14699;DHT22;7439;50.804;4.602;2022-07-19T10:24:49;38.90;1.00
14699;DHT22;7439;50.804;4.602;2022-07-19T10:27:17;38.50;1.00
14699;DHT22;7439;50.804;4.602;2022-07-19T10:29:45;39.10;1.00
14699;DHT22;7439;50.804;4.602;2022-07-19T10:32:14;39.20;1.00
14699;DHT22;7439;50.804;4.602;2022-07-19T10:34:42;39.30;1.00
14699;DHT22;7439;50.804;4.602;2022-07-19T10:37:13;39.70;1.00
14699;DHT22;7439;50.804;4.602;2022-07-19T10:39:41;39.30;1.00
14699;DHT22;7439;50.804;4.602;2022-07-19T10:42:14;39.70;1.00
14699;DHT22;7439;50.804;4.602;2022-07-19T10:45:10;39.00;1.00
14699;DHT22;7439;50.804;4.602;2022-07-19T10:48:12;39.00;1.00
14699;DHT22;7439;50.804;4.602;2022-07-19T10:50:55;39.00;1.00
14699;DHT22;7439;50.804;4.602;2022-07-19T10:54:00;38.80;1.00
14699;DHT22;7439;50.804;4.602;2022-07-19T10:56:39;39.40;1.00
14699;DHT22;7439;50.804;4.602;2022-07-19T10:59:07;39.70;1.00
14699;DHT22;7439;50.804;4.602;2022-07-19T11:01:36;39.50;1.00
14699;DHT22;7439;50.804;4.602;2022-07-19T11:04:32;39.90;1.00
14699;DHT22;7439;50.804;4.602;2022-07-19T11:07:13;39.00;1.00
14699;DHT22;7439;50.804;4.602;2022-07-19T11:09:47;39.40;1.00
14699;DHT22;7439;50.804;4.602;2022-07-19T11:12:29;40.20;1.00
14699;DHT22;7439;50.804;4.602;2022-07-19T11:14:58;40.60;1.00
14699;DHT22;7439;50.804;4.602;2022-07-19T11:17:25;40.30;1.00
14699;DHT22;7439;50.804;4.602;2022-07-19T11:20:07;39.50;1.00
14699;DHT22;7439;50.804;4.602;2022-07-19T11:22:40;39.50;1.00
14699;DHT22;7439;50.804;4.602;2022-07-19T11:25:10;40.40;1.00
14699;DHT22;7439;50.804;4.602;2022-07-19T11:27:40;40.30;1.00
14699;DHT22;7439;50.804;4.602;2022-07-19T11:30:09;41.10;1.00
14699;DHT22;7439;50.804;4.602;2022-07-19T11:32:36;41.10;1.00
14699;DHT22;7439;50.804;4.602;2022-07-19T11:35:05;40.70;1.00
14699;DHT22;7439;50.804;4.602;2022-07-19T11:37:34;40.90;1.00
14699;DHT22;7439;50.804;4.602;2022-07-19T11:40:02;40.70;1.00
14699;DHT22;7439;50.804;4.602;2022-07-19T11:42:36;40.40;1.00
14699;DHT22;7439;50.804;4.602;2022-07-19T11:45:11;40.30;1.00
14699;DHT22;7439;50.804;4.602;2022-07-19T11:47:41;40.10;1.00
14699;DHT22;7439;50.804;4.602;2022-07-19T11:50:11;40.00;1.00
14699;DHT22;7439;50.804;4.602;2022-07-19T11:52:46;40.70;1.00
14699;DHT22;7439;50.804;4.602;2022-07-19T11:55:14;41.10;1.00
14699;DHT22;7439;50.804;4.602;2022-07-19T11:57:43;42.20;1.00
14699;DHT22;7439;50.804;4.602;2022-07-19T12:00:12;42.60;1.00
14699;DHT22;7439;50.804;4.602;2022-07-19T12:02:53;42.00;1.00
14699;DHT22;7439;50.804;4.602;2022-07-19T12:05:22;41.30;1.00
14699;DHT22;7439;50.804;4.602;2022-07-19T12:07:50;41.40;1.00
14699;DHT22;7439;50.804;4.602;2022-07-19T12:10:41;42.00;1.00
14699;DHT22;7439;50.804;4.602;2022-07-19T12:13:11;42.00;1.00
14699;DHT22;7439;50.804;4.602;2022-07-19T12:15:46;41.70;1.00
14699;DHT22;7439;50.804;4.602;2022-07-19T12:18:14;41.70;1.00
14699;DHT22;7439;50.804;4.602;2022-07-19T12:20:43;41.30;1.00
14699;DHT22;7439;50.804;4.602;2022-07-19T12:23:12;41.50;1.00
14699;DHT22;7439;50.804;4.602;2022-07-19T12:25:39;41.70;1.00
14699;DHT22;7439;50.804;4.602;2022-07-19T12:28:07;42.60;1.00
14699;DHT22;7439;50.804;4.602;2022-07-19T12:30:35;42.30;1.00
14699;DHT22;7439;50.804;4.602;2022-07-19T12:33:08;41.90;1.00
14699;DHT22;7439;50.804;4.602;2022-07-19T12:35:42;42.00;1.00
14699;DHT22;7439;50.804;4.602;2022-07-19T12:38:09;41.10;1.00
14699;DHT22;7439;50.804;4.602;2022-07-19T12:40:38;41.00;1.00
14699;DHT22;7439;50.804;4.602;2022-07-19T12:43:09;41.30;1.00
14699;DHT22;7439;50.804;4.602;2022-07-19T12:45:41;41.10;1.00
14699;DHT22;7439;50.804;4.602;2022-07-19T12:48:10;41.70;1.00
14699;DHT22;7439;50.804;4.602;2022-07-19T12:50:40;42.80;1.00
14699;DHT22;7439;50.804;4.602;2022-07-19T12:53:10;43.00;1.00
14699;DHT22;7439;50.804;4.602;2022-07-19T12:55:39;43.20;1.00
14699;DHT22;7439;50.804;4.602;2022-07-19T12:58:07;44.00;1.00
14699;DHT22;7439;50.804;4.602;2022-07-19T13:00:35;44.30;1.00
14699;DHT22;7439;50.804;4.602;2022-07-19T13:03:05;45.10;1.00
14699;DHT22;7439;50.804;4.602;2022-07-19T13:05:33;45.60;1.00
14699;DHT22;7439;50.804;4.602;2022-07-19T13:08:00;44.60;1.00
14699;DHT22;7439;50.804;4.602;2022-07-19T13:10:29;44.20;1.00
14699;DHT22;7439;50.804;4.602;2022-07-19T13:12:56;44.10;1.00
14699;DHT22;7439;50.804;4.602;2022-07-19T13:15:23;43.80;1.00
14699;DHT22;7439;50.804;4.602;2022-07-19T13:17:50;43.80;1.00
14699;DHT22;7439;50.804;4.602;2022-07-19T13:20:19;43.80;1.00
14699;DHT22;7439;50.804;4.602;2022-07-19T13:22:46;44.10;1.00
14699;DHT22;7439;50.804;4.602;2022-07-19T13:25:13;44.70;1.00
14699;DHT22;7439;50.804;4.602;2022-07-19T13:27:41;45.70;1.00
14699;DHT22;7439;50.804;4.602;2022-07-19T13:30:08;44.70;1.00
14699;DHT22;7439;50.804;4.602;2022-07-19T13:32:36;43.90;1.00
14699;DHT22;7439;50.804;4.602;2022-07-19T13:35:04;42.70;1.00
14699;DHT22;7439;50.804;4.602;2022-07-19T13:37:33;42.80;1.00
14699;DHT22;7439;50.804;4.602;2022-07-19T13:40:00;43.20;1.00
14699;DHT22;7439;50.804;4.602;2022-07-19T13:42:27;43.30;1.00
14699;DHT22;7439;50.804;4.602;2022-07-19T13:44:54;43.00;1.00
14699;DHT22;7439;50.804;4.602;2022-07-19T13:47:21;43.10;1.00
14699;DHT22;7439;50.804;4.602;2022-07-19T13:49:48;43.20;1.00
14699;DHT22;7439;50.804;4.602;2022-07-19T13:52:15;43.70;1.00
14699;DHT22;7439;50.804;4.602;2022-07-19T13:54:44;43.60;1.00
14699;DHT22;7439;50.804;4.602;2022-07-19T13:57:11;43.00;1.00
14699;DHT22;7439;50.804;4.602;2022-07-19T13:59:38;44.00;1.00
14699;DHT22;7439;50.804;4.602;2022-07-19T14:02:05;44.30;1.00
14699;DHT22;7439;50.804;4.602;2022-07-19T14:04:32;43.40;1.00
14699;DHT22;7439;50.804;4.602;2022-07-19T14:06:59;43.10;1.00
14699;DHT22;7439;50.804;4.602;2022-07-19T14:09:26;43.30;1.00
14699;DHT22;7439;50.804;4.602;2022-07-19T14:11:55;44.10;1.00
14699;DHT22;7439;50.804;4.602;2022-07-19T14:14:22;44.20;1.00
14699;DHT22;7439;50.804;4.602;2022-07-19T14:16:49;43.50;1.00
14699;DHT22;7439;50.804;4.602;2022-07-19T14:19:16;43.30;1.00
14699;DHT22;7439;50.804;4.602;2022-07-19T14:21:43;43.70;1.00
14699;DHT22;7439;50.804;4.602;2022-07-19T14:24:10;44.10;1.00
14699;DHT22;7439;50.804;4.602;2022-07-19T14:26:37;44.30;1.00
14699;DHT22;7439;50.804;4.602;2022-07-19T14:29:06;43.60;1.00
14699;DHT22;7439;50.804;4.602;2022-07-19T14:31:33;42.30;1.00
14699;DHT22;7439;50.804;4.602;2022-07-19T14:34:00;41.10;1.00
14699;DHT22;7439;50.804;4.602;2022-07-19T14:36:27;40.00;1.00
14699;DHT22;7439;50.804;4.602;2022-07-19T14:38:54;39.30;1.00
14699;DHT22;7439;50.804;4.602;2022-07-19T14:41:21;39.10;1.00
14699;DHT22;7439;50.804;4.602;2022-07-19T14:43:48;38.90;1.00
14699;DHT22;7439;50.804;4.602;2022-07-19T14:46:16;38.60;1.00
14699;DHT22;7439;50.804;4.602;2022-07-19T14:48:43;38.30;1.00
14699;DHT22;7439;50.804;4.602;2022-07-19T14:51:10;38.10;1.00
14699;DHT22;7439;50.804;4.602;2022-07-19T14:53:38;38.10;1.00
14699;DHT22;7439;50.804;4.602;2022-07-19T14:56:05;38.00;1.00
14699;DHT22;7439;50.804;4.602;2022-07-19T14:58:32;38.00;1.00
14699;DHT22;7439;50.804;4.602;2022-07-19T15:01:00;37.90;1.00
14699;DHT22;7439;50.804;4.602;2022-07-19T15:03:29;37.90;1.00
14699;DHT22;7439;50.804;4.602;2022-07-19T15:05:56;37.80;1.00
14699;DHT22;7439;50.804;4.602;2022-07-19T15:08:23;37.70;1.00
14699;DHT22;7439;50.804;4.602;2022-07-19T15:10:50;37.70;1.00
14699;DHT22;7439;50.804;4.602;2022-07-19T15:13:17;37.60;1.00
14699;DHT22;7439;50.804;4.602;2022-07-19T15:15:44;37.60;1.00
14699;DHT22;7439;50.804;4.602;2022-07-19T15:18:11;37.50;1.00
14699;DHT22;7439;50.804;4.602;2022-07-19T15:20:40;37.50;1.00
14699;DHT22;7439;50.804;4.602;2022-07-19T15:23:07;37.40;1.00
14699;DHT22;7439;50.804;4.602;2022-07-19T15:25:35;37.40;1.00
14699;DHT22;7439;50.804;4.602;2022-07-19T15:28:03;37.30;1.00
14699;DHT22;7439;50.804;4.602;2022-07-19T15:30:30;37.40;1.00
14699;DHT22;7439;50.804;4.602;2022-07-19T15:32:57;37.30;1.00
14699;DHT22;7439;50.804;4.602;2022-07-19T15:35:24;37.30;1.00
14699;DHT22;7439;50.804;4.602;2022-07-19T15:37:52;37.20;1.00
14699;DHT22;7439;50.804;4.602;2022-07-19T15:40:20;37.20;1.00
14699;DHT22;7439;50.804;4.602;2022-07-19T15:42:48;37.20;1.00
14699;DHT22;7439;50.804;4.602;2022-07-19T15:45:16;37.10;1.00
14699;DHT22;7439;50.804;4.602;2022-07-19T15:47:44;37.00;1.00
14699;DHT22;7439;50.804;4.602;2022-07-19T15:50:12;37.00;1.00
14699;DHT22;7439;50.804;4.602;2022-07-19T15:52:40;37.00;1.00
14699;DHT22;7439;50.804;4.602;2022-07-19T15:55:09;37.00;1.00
14699;DHT22;7439;50.804;4.602;2022-07-19T15:57:36;37.00;1.00
14699;DHT22;7439;50.804;4.602;2022-07-19T16:00:06;36.90;1.00
14699;DHT22;7439;50.804;4.602;2022-07-19T16:02:34;36.80;1.00
14699;DHT22;7439;50.804;4.602;2022-07-19T16:05:01;36.90;1.00